Airfield :
LOGIN :

Register | Disclaimer

   EN    FR    IT 

 










Legend :    VFR   Marginal VFR   IFR   Intensive IFR   Very Intensive IFR
Visi :
Ceiling :
>= 8 km
>= 3000ft
5 to 8 km
1000 to 3000 ft
1500m to 5 km
500 to 1000 ft
800 to 1500m
200 to 500 ft
< 800m
< 200 ft
Symbols :   Thunderstorms  Fog  Heavy snow  Heavy precipitations  Wind > 20 kt
SIGMETs :     Misc.  Thunderstorms  Icing  Turbulence  Mountain Waves  Volcanic Ashes






- Airport Elevation : 779 ft
- IATA code : CMF


LFLB - Chambery / Aix-Les-Bains

CURRENT METAR :
  • 011330Z AUTO 02007KT 9999 OVC044 07/02 Q1019 NOSIG

EXPIRED METARs :
  • 011300Z AUTO 01009KT 9999 OVC044 07/02 Q1019 NOSIG
  • 011230Z AUTO 01008KT 9999 OVC041 07/02 Q1019 NOSIG
  • 011200Z AUTO 01008KT 9999 OVC040 07/02 Q1019 NOSIG
  • 011130Z AUTO 36008KT 9999 OVC039 07/03 Q1019 NOSIG
  • 011100Z AUTO 02007KT 9999 FEW035 OVC041 07/03 Q1019 NOSIG

TAF TAF LFLB
Valid from the 01 at 09:00 until the 02 at 09:00 UTC


010800Z 0109/0209 36007KT 9999 BKN025 OVC035
PROB30
TEMPO 0203/0209 BKN014 OVC020



MET'MAP, your aeronautical weather chart ! - Copyright ORBIFLY December 2007 - Disclaimer

ORBIFLY MET'MAP TEAM :

Programming & Development : Alexandra Zaïnal
Original concept : Baudouin d'Aumeries
Technical & hardware support : Manuel Goepfert
Assistance : Marc-Olivier Méhu




SOURCES & CREDITS :

   NOAA